Time;durP1;ratioP1;P1;durP2;ratioP2;P2;SDS_P1;SDS_P2;PMS_P1;PMS_P2;Temp;Humidity;BMP_temperature;BMP_pressure;BME280_temperature;BME280_humidity;BME280_pressure;Samples;Min_cycle;Max_cycle;Signal;HPM_P1;HPM_P2
2023/09/14 00:01:07;;;;;;;9.95;1.48;;;;;;;12.49;100.00;101214.50;5011784;28;20393;-83
2023/09/14 00:03:32;;;;;;;15.43;2.33;;;;;;;12.41;100.00;101206.47;4995505;28;20026;-82
2023/09/14 00:05:58;;;;;;;15.35;2.10;;;;;;;12.43;100.00;101214.38;4995592;28;20552;-83
2023/09/14 00:08:24;;;;;;;11.88;2.50;;;;;;;12.47;100.00;101226.50;4995297;28;20046;-83
2023/09/14 00:10:58;;;;;;;10.02;1.75;;;;;;;12.44;100.00;101226.84;4995481;28;20038;-82
2023/09/14 00:13:24;;;;;;;9.77;1.63;;;;;;;12.45;100.00;101223.13;4995455;28;20026;-82
2023/09/14 00:15:50;;;;;;;11.55;1.48;;;;;;;12.40;100.00;101220.13;5011730;28;20035;-83
2023/09/14 00:18:16;;;;;;;8.20;1.50;;;;;;;12.32;100.00;101207.50;4978491;28;20026;-83
2023/09/14 00:20:42;;;;;;;13.00;1.80;;;;;;;12.23;100.00;101216.69;4977953;28;20466;-84
2023/09/14 00:23:07;;;;;;;12.85;1.80;;;;;;;12.20;100.00;101225.94;4993621;28;20101;-84
2023/09/14 00:25:33;;;;;;;10.50;1.50;;;;;;;12.18;100.00;101227.97;5010318;28;20026;-85
2023/09/14 00:27:59;;;;;;;10.25;1.70;;;;;;;12.10;100.00;101215.38;4978680;28;20074;-84
2023/09/14 00:30:25;;;;;;;10.57;2.35;;;;;;;12.10;100.00;101217.22;4994815;28;20037;-83
2023/09/14 00:32:52;;;;;;;5.18;1.42;;;;;;;12.06;100.00;101222.09;4994870;28;20042;-84
2023/09/14 00:35:19;;;;;;;12.02;1.60;;;;;;;12.07;100.00;101225.66;5011267;28;20038;-84
2023/09/14 00:37:44;;;;;;;10.75;1.38;;;;;;;12.02;100.00;101218.09;4995058;28;20030;-82
2023/09/14 00:40:11;;;;;;;15.85;1.92;;;;;;;12.00;100.00;101230.06;4994819;28;20030;-83
2023/09/14 00:42:43;;;;;;;7.78;1.25;;;;;;;11.90;100.00;101226.72;4978844;28;20054;-83
2023/09/14 00:45:12;;;;;;;8.30;1.27;;;;;;;11.81;100.00;101220.50;4994668;28;20618;-82
2023/09/14 00:47:39;;;;;;;11.05;2.03;;;;;;;11.69;100.00;101222.69;4994874;28;20113;-83
2023/09/14 00:50:07;;;;;;;4.90;1.30;;;;;;;11.72;100.00;101234.97;4994845;28;20485;-82
2023/09/14 00:52:34;;;;;;;13.75;1.75;;;;;;;11.66;100.00;101233.81;4978783;28;20038;-83
2023/09/14 00:55:00;;;;;;;13.23;2.50;;;;;;;11.65;100.00;101229.47;5011076;28;20124;-83
2023/09/14 00:57:26;;;;;;;12.70;1.85;;;;;;;11.49;100.00;101232.19;4994738;28;20037;-83
2023/09/14 00:59:51;;;;;;;9.32;1.40;;;;;;;11.37;100.00;101235.19;4994480;28;20031;-82
2023/09/14 01:02:17;;;;;;;12.27;1.92;;;;;;;11.33;100.00;101235.72;4994616;28;20035;-82
2023/09/14 01:04:43;;;;;;;8.93;1.58;;;;;;;11.21;100.00;101244.13;4978065;28;20358;-83
2023/09/14 01:07:09;;;;;;;7.32;1.63;;;;;;;11.06;100.00;101231.50;4978328;28;20078;-85
2023/09/14 01:09:35;;;;;;;7.22;1.23;;;;;;;11.02;100.00;101231.00;4994572;28;20442;-83
2023/09/14 01:12:02;;;;;;;8.15;1.52;;;;;;;10.92;100.00;101230.31;5010787;28;20113;-84
2023/09/14 01:14:41;;;;;;;14.10;1.50;;;;;;;10.81;100.00;101230.66;4994452;28;20070;-83
2023/09/14 01:17:16;;;;;;;12.52;1.85;;;;;;;10.87;100.00;101219.22;4978262;28;20466;-83
2023/09/14 01:19:41;;;;;;;9.45;1.17;;;;;;;10.90;100.00;101221.56;4994323;28;20046;-83
2023/09/14 01:22:24;;;;;;;5.75;0.90;;;;;;;10.97;100.00;101223.41;4994975;28;20390;-83
2023/09/14 01:24:57;;;;;;;8.18;1.33;;;;;;;11.05;100.00;101225.28;4993990;28;20038;-82
2023/09/14 01:28:05;;;;;;;5.70;1.52;;;;;;;11.26;100.00;101223.94;4994038;28;20065;-82
2023/09/14 01:30:31;;;;;;;9.23;1.15;;;;;;;11.46;100.00;101230.66;4972307;28;20049;-83
2023/09/14 01:32:57;;;;;;;9.48;1.25;;;;;;;11.52;100.00;101221.91;4993966;28;20105;-82
2023/09/14 01:35:23;;;;;;;9.10;1.52;;;;;;;11.66;100.00;101226.56;5010108;28;20359;-82
2023/09/14 01:37:48;;;;;;;12.30;1.58;;;;;;;11.83;100.00;101232.78;4992829;28;20065;-82
2023/09/14 01:40:14;;;;;;;14.23;1.60;;;;;;;11.92;100.00;101238.19;4993702;28;20042;-83
2023/09/14 01:42:40;;;;;;;14.80;1.95;;;;;;;11.97;100.00;101239.34;5009791;28;20130;-82
2023/09/14 01:45:07;;;;;;;11.13;1.42;;;;;;;11.97;100.00;101227.72;4994651;28;20054;-82
2023/09/14 01:47:33;;;;;;;8.52;1.20;;;;;;;11.95;100.00;101227.06;5009665;28;20117;-82
2023/09/14 01:49:59;;;;;;;8.55;1.50;;;;;;;12.03;100.00;101229.72;5009492;28;20046;-82
2023/09/14 01:52:25;;;;;;;7.90;1.42;;;;;;;12.09;100.00;101237.09;4993378;28;20057;-85
2023/09/14 01:54:50;;;;;;;6.97;1.27;;;;;;;12.10;100.00;101228.00;4993514;28;20484;-81
2023/09/14 01:57:36;;;;;;;5.28;1.30;;;;;;;12.16;100.00;101237.25;5009266;28;20038;-82
2023/09/14 02:00:05;;;;;;;5.63;1.10;;;;;;;12.24;100.00;101232.66;4987253;28;20045;-81
2023/09/14 02:02:31;;;;;;;10.65;1.73;;;;;;;12.24;100.00;101238.06;4977370;28;20109;-84
2023/09/14 02:04:56;;;;;;;12.00;2.13;;;;;;;12.26;100.00;101238.72;4993351;28;20045;-81
2023/09/14 02:07:22;;;;;;;16.10;1.58;;;;;;;12.29;100.00;101240.22;4993827;28;20043;-82
2023/09/14 02:09:48;;;;;;;8.88;1.63;;;;;;;12.36;100.00;101245.75;4977224;28;20039;-82
2023/09/14 02:12:13;;;;;;;5.35;1.08;;;;;;;12.33;100.00;101233.44;5009715;28;20038;-82
2023/09/14 02:14:39;;;;;;;8.05;1.60;;;;;;;12.38;100.00;101243.72;4977080;28;20069;-83
2023/09/14 02:17:04;;;;;;;5.03;1.42;;;;;;;12.40;100.00;101252.47;4993178;28;20026;-83
2023/09/14 02:19:30;;;;;;;8.00;1.40;;;;;;;12.38;100.00;101246.41;4993139;28;20042;-82
2023/09/14 02:21:55;;;;;;;8.48;2.40;;;;;;;12.38;100.00;101252.66;4993012;28;20050;-82
2023/09/14 02:24:21;;;;;;;3.45;1.40;;;;;;;12.38;100.00;101249.94;5008845;28;20125;-82
2023/09/14 02:26:46;;;;;;;11.00;1.33;;;;;;;12.38;100.00;101255.34;4993261;28;20045;-82
2023/09/14 02:29:12;;;;;;;9.52;1.52;;;;;;;12.37;100.00;101256.38;4993135;28;20044;-83
2023/09/14 02:31:37;;;;;;;10.82;1.48;;;;;;;12.32;100.00;101247.97;4992427;28;20026;-82
2023/09/14 02:34:03;;;;;;;11.73;2.00;;;;;;;12.31;100.00;101246.28;4993155;28;20093;-82
2023/09/14 02:36:29;;;;;;;7.50;1.20;;;;;;;12.35;100.00;101246.78;4993017;28;20080;-83
2023/09/14 02:38:54;;;;;;;6.40;1.13;;;;;;;12.30;100.00;101247.28;5008930;28;20092;-83
2023/09/14 02:41:19;;;;;;;13.20;1.50;;;;;;;12.18;100.00;101243.31;4992851;28;20038;-82
2023/09/14 02:43:45;;;;;;;8.07;1.42;;;;;;;12.05;100.00;101243.88;4992928;28;20034;-83
2023/09/14 02:46:10;;;;;;;5.60;1.50;;;;;;;11.91;100.00;101241.88;4994144;28;20034;-83
2023/09/14 02:48:36;;;;;;;4.18;1.20;;;;;;;11.74;100.00;101238.34;4977331;28;20424;-83
2023/09/14 02:51:02;;;;;;;2.78;1.00;;;;;;;11.64;100.00;101233.13;4980571;28;20031;-83
2023/09/14 02:53:28;;;;;;;4.85;1.30;;;;;;;11.60;100.00;101238.03;4997633;28;20031;-83
2023/09/14 02:55:54;;;;;;;6.40;1.83;;;;;;;11.52;100.00;101238.06;4996676;28;20050;-84
2023/09/14 02:58:19;;;;;;;5.22;1.10;;;;;;;11.41;100.00;101250.00;4996539;28;20176;-83
2023/09/14 03:00:45;;;;;;;8.55;1.40;;;;;;;11.28;100.00;101235.38;4996802;28;20496;-83
2023/09/14 03:03:10;;;;;;;2.53;0.98;;;;;;;11.20;100.00;101230.84;5013043;28;20026;-83
2023/09/14 03:05:36;;;;;;;4.55;1.10;;;;;;;11.02;100.00;101232.84;5013407;28;20053;-83
2023/09/14 03:08:01;;;;;;;5.63;1.80;;;;;;;10.83;100.00;101242.09;4996559;28;20046;-84
2023/09/14 03:10:27;;;;;;;6.47;1.25;;;;;;;10.64;100.00;101243.19;4996454;28;20030;-83
2023/09/14 03:12:52;;;;;;;7.55;1.20;;;;;;;10.50;100.00;101248.19;4980380;28;20113;-84
2023/09/14 03:15:18;;;;;;;6.57;1.30;;;;;;;10.31;100.00;101243.94;4996465;28;20038;-84
2023/09/14 03:17:44;;;;;;;5.93;1.08;;;;;;;10.28;100.00;101244.28;5012458;28;20041;-85
2023/09/14 03:20:12;;;;;;;2.60;0.95;;;;;;;10.42;100.00;101240.13;4996511;28;20476;-83
2023/09/14 03:22:38;;;;;;;6.68;1.45;;;;;;;10.37;100.00;101239.75;5012112;28;20042;-83
2023/09/14 03:25:04;;;;;;;7.22;1.15;;;;;;;10.47;100.00;101240.47;4980020;28;20363;-83
2023/09/14 03:27:29;;;;;;;5.60;0.82;;;;;;;10.36;100.00;101237.25;4996372;28;20042;-83
2023/09/14 03:29:55;;;;;;;7.93;1.48;;;;;;;10.17;100.00;101243.69;4996344;28;20480;-84
2023/09/14 03:32:23;;;;;;;7.68;1.38;;;;;;;10.22;100.00;101231.47;4996049;28;20458;-83
2023/09/14 03:34:48;;;;;;;4.40;1.02;;;;;;;10.27;100.00;101239.03;5012391;28;20473;-84
2023/09/14 03:37:14;;;;;;;6.82;1.13;;;;;;;10.35;100.00;101231.03;5012581;28;20030;-82
2023/09/14 03:39:39;;;;;;;6.15;1.00;;;;;;;10.26;100.00;101231.97;4996214;28;20041;-83
2023/09/14 03:42:05;;;;;;;6.18;1.08;;;;;;;10.29;100.00;101231.66;4996030;28;20030;-83
2023/09/14 03:44:31;;;;;;;2.67;1.30;;;;;;;10.26;100.00;101240.03;4979773;28;20528;-83
2023/09/14 03:46:56;;;;;;;7.93;0.80;;;;;;;10.19;100.00;101237.16;5011925;28;20029;-82
2023/09/14 03:49:22;;;;;;;8.98;1.10;;;;;;;9.99;100.00;101233.88;4996049;28;20458;-83
2023/09/14 03:51:56;;;;;;;13.25;1.15;;;;;;;9.75;100.00;101223.00;5012136;28;20042;-83
2023/09/14 03:54:22;;;;;;;37.40;2.00;;;;;;;9.60;100.00;101239.66;5010988;28;20065;-82
2023/09/14 03:56:47;;;;;;;16.48;1.48;;;;;;;9.50;100.00;101233.59;4995512;28;20466;-85
2023/09/14 03:59:13;;;;;;;3.88;0.90;;;;;;;9.41;100.00;101239.88;4995751;28;20030;-83
2023/09/14 04:01:38;;;;;;;6.00;1.17;;;;;;;9.33;100.00;101237.13;5010665;28;20035;-84
2023/09/14 04:04:04;;;;;;;15.00;1.27;;;;;;;9.24;100.00;101244.28;4995506;28;20038;-83
2023/09/14 04:06:30;;;;;;;20.35;1.38;;;;;;;9.15;100.00;101238.00;4995662;28;20062;-83
2023/09/14 04:08:55;;;;;;;17.92;1.23;;;;;;;9.04;100.00;101238.25;5011752;28;20061;-83
2023/09/14 04:11:21;;;;;;;9.32;1.05;;;;;;;9.06;100.00;101240.78;4996759;28;20560;-82
2023/09/14 04:13:47;;;;;;;8.65;1.00;;;;;;;9.17;100.00;101244.06;4995383;28;20125;-82
2023/09/14 04:16:13;;;;;;;2.63;0.80;;;;;;;9.20;100.00;101240.22;4995416;28;20385;-82
2023/09/14 04:18:39;;;;;;;2.30;0.65;;;;;;;9.46;100.00;101243.78;4995353;28;20471;-84
2023/09/14 04:21:06;;;;;;;6.57;1.13;;;;;;;9.58;100.00;101249.75;4995423;28;20046;-81
2023/09/14 04:23:31;;;;;;;2.10;0.70;;;;;;;9.56;100.00;101248.22;5012540;28;20030;-83
2023/09/14 04:25:59;;;;;;;8.02;1.05;;;;;;;9.59;100.00;101242.53;4995771;28;20034;-82
2023/09/14 04:28:25;;;;;;;12.50;1.23;;;;;;;9.70;100.00;101247.63;4979142;28;20034;-82
2023/09/14 04:30:59;;;;;;;8.18;0.98;;;;;;;9.87;100.00;101241.38;4994776;28;20061;-82
2023/09/14 04:33:25;;;;;;;2.78;0.88;;;;;;;10.02;100.00;101238.91;5011443;28;20474;-82
2023/09/14 04:35:58;;;;;;;3.47;0.88;;;;;;;10.20;100.00;101238.00;5011071;28;20156;-82
2023/09/14 04:38:23;;;;;;;1.83;0.65;;;;;;;10.29;100.00;101245.97;4996153;28;20385;-82
2023/09/14 04:40:52;;;;;;;1.98;0.70;;;;;;;10.43;100.00;101249.03;5011289;28;20038;-82
2023/09/14 04:43:17;;;;;;;3.70;0.77;;;;;;;10.43;100.00;101244.50;4994893;28;20030;-82
2023/09/14 04:45:47;;;;;;;3.88;0.90;;;;;;;10.42;100.00;101250.03;5010533;28;20528;-84
2023/09/14 04:48:13;;;;;;;3.28;1.13;;;;;;;10.30;100.00;101249.50;4994669;28;20034;-82
2023/09/14 04:50:40;;;;;;;5.32;0.90;;;;;;;10.09;100.00;101253.41;4994729;28;20051;-83
2023/09/14 04:53:06;;;;;;;4.03;0.98;;;;;;;9.89;100.00;101250.09;4994563;28;20049;-82
2023/09/14 04:55:31;;;;;;;1.77;0.70;;;;;;;9.63;100.00;101252.81;4995671;28;20030;-83
2023/09/14 04:57:57;;;;;;;4.22;0.70;;;;;;;9.49;100.00;101253.38;5010535;28;20030;-82
2023/09/14 05:00:23;;;;;;;14.57;1.05;;;;;;;9.29;100.00;101246.47;5010999;28;20066;-82
2023/09/14 05:02:48;;;;;;;22.00;1.42;;;;;;;9.15;100.00;101262.13;4994412;28;20466;-82
2023/09/14 05:05:14;;;;;;;5.93;1.00;;;;;;;9.13;100.00;101264.16;4993958;28;20048;-82
2023/09/14 05:07:41;;;;;;;13.73;1.10;;;;;;;9.11;100.00;101259.94;4994352;28;20054;-82
2023/09/14 05:10:08;;;;;;;10.25;0.98;;;;;;;9.02;100.00;101259.88;4978277;28;20041;-82
2023/09/14 05:12:34;;;;;;;5.55;0.75;;;;;;;8.98;100.00;101271.06;5009261;28;20031;-83
2023/09/14 05:14:59;;;;;;;4.13;0.63;;;;;;;8.98;100.00;101277.25;4994448;28;20065;-83
2023/09/14 05:17:25;;;;;;;2.58;0.50;;;;;;;9.06;100.00;101281.03;4994083;28;20042;-82
2023/09/14 05:19:50;;;;;;;4.47;0.68;;;;;;;9.16;100.00;101279.94;4994109;28;20038;-82
2023/09/14 05:22:16;;;;;;;1.45;0.60;;;;;;;9.20;100.00;101283.97;5010337;28;20126;-83
2023/09/14 05:24:42;;;;;;;4.72;0.73;;;;;;;9.17;100.00;101278.94;4993595;28;20037;-83
2023/09/14 05:27:07;;;;;;;5.75;0.50;;;;;;;9.22;100.00;101273.13;5010238;28;20117;-82
2023/09/14 05:29:33;;;;;;;6.03;0.63;;;;;;;9.29;100.00;101279.56;5010395;28;20027;-83
2023/09/14 05:31:59;;;;;;;5.50;0.70;;;;;;;9.37;100.00;101273.41;5010071;28;20473;-83
2023/09/14 05:34:24;;;;;;;5.20;0.70;;;;;;;9.48;100.00;101275.84;4993815;28;20042;-84
2023/09/14 05:36:50;;;;;;;1.08;0.70;;;;;;;9.49;100.00;101277.53;5010184;28;20068;-83
2023/09/14 05:39:16;;;;;;;0.98;0.60;;;;;;;9.49;100.00;101280.19;5009878;28;20042;-83
2023/09/14 05:41:41;;;;;;;1.13;0.60;;;;;;;9.30;100.00;101273.19;5009555;28;20068;-81
2023/09/14 05:44:10;;;;;;;0.45;0.45;;;;;;;9.14;100.00;101289.97;5010039;28;20030;-82
2023/09/14 05:46:39;;;;;;;2.95;0.70;;;;;;;8.95;100.00;101287.44;5009636;28;20062;-83
2023/09/14 05:49:06;;;;;;;1.08;0.60;;;;;;;8.75;100.00;101276.84;5009847;28;20073;-83
2023/09/14 05:51:31;;;;;;;0.70;0.50;;;;;;;8.71;100.00;101283.50;4992992;28;20060;-83
2023/09/14 05:53:57;;;;;;;1.27;0.55;;;;;;;8.59;100.00;101284.69;4993628;28;20034;-83
2023/09/14 05:56:22;;;;;;;2.53;0.55;;;;;;;8.52;100.00;101291.66;4993543;28;20033;-83
2023/09/14 05:58:48;;;;;;;3.42;0.68;;;;;;;8.46;100.00;101294.94;4993608;28;20037;-82
2023/09/14 06:01:14;;;;;;;1.35;0.55;;;;;;;8.44;100.00;101288.88;4993512;28;20465;-83
2023/09/14 06:03:40;;;;;;;1.48;0.50;;;;;;;8.44;100.00;101294.22;4993138;28;20381;-83
2023/09/14 06:06:05;;;;;;;15.98;1.35;;;;;;;8.43;100.00;101297.91;4993348;28;20035;-83
2023/09/14 06:08:31;;;;;;;6.20;0.73;;;;;;;8.43;100.00;101289.88;5009576;28;20485;-83
2023/09/14 06:10:58;;;;;;;4.70;0.80;;;;;;;8.50;100.00;101290.97;4993366;28;20458;-82
2023/09/14 06:13:25;;;;;;;2.47;0.70;;;;;;;8.49;100.00;101305.34;4992485;28;20042;-83
2023/09/14 06:15:50;;;;;;;4.88;0.68;;;;;;;8.48;100.00;101295.63;4992823;28;20117;-83
2023/09/14 06:18:16;;;;;;;2.83;0.52;;;;;;;8.49;100.00;101300.81;4977011;28;20038;-83
2023/09/14 06:20:42;;;;;;;2.35;0.63;;;;;;;8.54;100.00;101300.38;4993211;28;20034;-83
2023/09/14 06:23:08;;;;;;;5.25;0.70;;;;;;;8.67;100.00;101305.41;4976535;28;20096;-83
2023/09/14 06:25:33;;;;;;;1.33;0.60;;;;;;;8.71;100.00;101294.25;4992572;28;20033;-83
2023/09/14 06:27:59;;;;;;;1.48;0.45;;;;;;;8.78;100.00;101302.50;4992606;28;20461;-83
2023/09/14 06:30:24;;;;;;;0.43;0.40;;;;;;;8.76;100.00;101302.69;4976831;28;20034;-83
2023/09/14 06:32:50;;;;;;;1.25;0.40;;;;;;;8.78;100.00;101297.16;4976656;28;20050;-82
2023/09/14 06:35:16;;;;;;;3.33;0.52;;;;;;;8.83;100.00;101312.78;4976853;28;20117;-83
2023/09/14 06:37:41;;;;;;;0.52;0.50;;;;;;;8.90;100.00;101317.41;5009296;28;20210;-83
2023/09/14 06:40:08;;;;;;;1.17;0.43;;;;;;;8.95;100.00;101314.28;4976725;28;20033;-82
2023/09/14 06:42:34;;;;;;;2.40;0.50;;;;;;;9.07;100.00;101320.25;4977580;28;20023;-82
2023/09/14 06:45:01;;;;;;;3.92;0.60;;;;;;;9.13;100.00;101317.81;4994789;28;20042;-82
2023/09/14 06:47:26;;;;;;;0.30;0.30;;;;;;;9.22;100.00;101329.47;4995206;28;20481;-82
2023/09/14 06:49:52;;;;;;;2.83;0.60;;;;;;;9.28;100.00;101326.16;5021491;28;20117;-83
2023/09/14 06:52:17;;;;;;;1.33;0.60;;;;;;;9.40;100.00;101334.84;5011478;28;20044;-83
2023/09/14 06:54:45;;;;;;;0.45;0.45;;;;;;;9.52;100.00;101320.16;4992691;28;20480;-83
2023/09/14 06:57:11;;;;;;;1.85;0.47;;;;;;;9.81;100.00;101324.41;4992817;28;20561;-83
2023/09/14 06:59:42;;;;;;;1.13;0.57;;;;;;;10.04;100.00;101330.94;4992528;28;20113;-83
2023/09/14 07:02:08;;;;;;;0.63;0.60;;;;;;;10.17;100.00;101333.22;4976610;28;20037;-83
2023/09/14 07:04:34;;;;;;;3.90;0.70;;;;;;;10.31;100.00;101334.50;4976364;28;20026;-81
2023/09/14 07:07:00;;;;;;;2.53;0.57;;;;;;;10.43;100.00;101337.75;5008941;28;20648;-82
2023/09/14 07:09:26;;;;;;;0.82;0.50;;;;;;;10.48;100.00;101336.28;4960621;28;20482;-81
2023/09/14 07:11:52;;;;;;;0.52;0.52;;;;;;;10.63;100.00;101346.41;4992717;28;20094;-81
2023/09/14 07:14:17;;;;;;;4.68;0.70;;;;;;;10.76;100.00;101344.09;4976551;28;20442;-81
2023/09/14 07:16:43;;;;;;;2.28;0.60;;;;;;;10.92;100.00;101346.00;4992443;28;20027;-82
2023/09/14 07:19:09;;;;;;;2.40;0.73;;;;;;;11.12;100.00;101354.66;4992259;28;20035;-82
2023/09/14 07:21:37;;;;;;;3.53;1.13;;;;;;;11.29;100.00;101361.72;4992559;28;20030;-82
2023/09/14 07:24:09;;;;;;;4.40;1.00;;;;;;;11.54;100.00;101359.09;4976356;28;20045;-82
2023/09/14 07:26:55;;;;;;;6.63;1.10;;;;;;;11.69;100.00;101353.84;4988576;28;20046;-82
2023/09/14 07:29:21;;;;;;;9.80;3.75;;;;;;;11.82;100.00;101348.81;4992127;28;20030;-82
2023/09/14 07:31:48;;;;;;;7.78;2.85;;;;;;;11.93;100.00;101351.16;5008057;28;20026;-82
2023/09/14 07:34:13;;;;;;;15.68;4.38;;;;;;;12.08;100.00;101359.41;4976236;28;20038;-82
2023/09/14 07:36:39;;;;;;;14.35;5.13;;;;;;;12.29;100.00;101365.09;4977995;28;20030;-83
2023/09/14 07:39:05;;;;;;;17.65;5.68;;;;;;;12.50;100.00;101369.09;4995937;28;20070;-82
2023/09/14 07:41:31;;;;;;;15.75;4.22;;;;;;;12.68;100.00;101369.72;4979308;28;20042;-85
2023/09/14 07:43:57;;;;;;;18.92;6.50;;;;;;;12.88;100.00;101370.09;4995796;28;20031;-82
2023/09/14 07:46:22;;;;;;;28.75;9.15;;;;;;;13.30;100.00;101362.66;4995337;28;20049;-82
2023/09/14 07:48:48;;;;;;;15.82;6.85;;;;;;;13.68;100.00;101366.28;4979096;28;20484;-83
2023/09/14 07:51:13;;;;;;;11.15;4.30;;;;;;;13.79;100.00;101370.41;5011271;28;20060;-85
2023/09/14 07:53:39;;;;;;;10.68;4.43;;;;;;;14.10;100.00;101375.69;4995534;28;20465;-83
2023/09/14 07:56:05;;;;;;;10.90;3.80;;;;;;;14.44;100.00;101364.34;4995426;28;20045;-83
2023/09/14 07:58:31;;;;;;;12.68;3.00;;;;;;;14.60;100.00;101376.03;4977646;28;20504;-82
2023/09/14 08:00:57;;;;;;;11.88;2.78;;;;;;;14.90;100.00;101366.88;4992954;28;20038;-84
2023/09/14 08:03:25;;;;;;;12.43;2.45;;;;;;;15.63;100.00;101377.66;4994901;28;20039;-85
2023/09/14 08:05:51;;;;;;;15.40;2.40;;;;;;;16.11;100.00;101377.03;4995295;28;20049;-86
2023/09/14 08:08:17;;;;;;;6.65;1.90;;;;;;;16.42;100.00;101371.22;5011622;28;20038;-90
2023/09/14 08:10:49;;;;;;;9.23;1.98;;;;;;;16.35;100.00;101368.44;4995176;28;20045;-88
2023/09/14 08:13:14;;;;;;;6.07;1.30;;;;;;;15.99;100.00;101363.19;5011479;28;20029;-87
2023/09/14 08:15:41;;;;;;;5.75;1.48;;;;;;;15.60;100.00;101361.78;4995509;28;20042;-87
2023/09/14 08:18:07;;;;;;;9.02;1.60;;;;;;;15.39;100.00;101368.03;5011691;28;20030;-88
2023/09/14 08:20:43;;;;;;;3.80;1.50;;;;;;;15.25;100.00;101369.78;4996189;28;20038;-87
2023/09/14 08:23:14;;;;;;;8.93;2.13;;;;;;;15.27;100.00;101369.56;4995416;28;20473;-89
2023/09/14 08:25:45;;;;;;;8.20;1.58;;;;;;;15.36;100.00;101368.41;4996582;28;20058;-87
2023/09/14 08:28:18;;;;;;;6.65;2.25;;;;;;;15.38;100.00;101374.50;4995223;28;20034;-87
2023/09/14 08:30:44;;;;;;;13.55;1.88;;;;;;;15.33;100.00;101364.22;5011117;28;20039;-89
2023/09/14 08:33:11;;;;;;;4.90;1.30;;;;;;;15.29;100.00;101364.78;5011604;28;20053;-88
2023/09/14 08:35:37;;;;;;;4.97;1.52;;;;;;;15.14;100.00;101364.84;4994956;28;20031;-88
2023/09/14 08:38:05;;;;;;;7.10;1.58;;;;;;;15.06;100.00;101356.84;4995258;28;20389;-88
2023/09/14 08:40:31;;;;;;;5.90;1.30;;;;;;;15.05;100.00;101349.72;4979401;28;20038;-89
2023/09/14 08:42:59;;;;;;;7.22;1.48;;;;;;;15.02;100.00;101350.94;5011512;28;20101;-88
2023/09/14 08:45:29;;;;;;;7.60;1.83;;;;;;;14.94;100.00;101354.59;4995901;28;20093;-89
2023/09/14 08:47:56;;;;;;;11.90;1.50;;;;;;;14.85;100.00;101377.44;4995134;28;20473;-89
2023/09/14 08:50:26;;;;;;;5.03;1.30;;;;;;;14.76;100.00;101380.41;4994670;28;20030;-89
2023/09/14 08:52:52;;;;;;;3.60;1.10;;;;;;;14.63;100.00;101381.06;4979291;28;20042;-89
2023/09/14 08:55:19;;;;;;;14.02;2.30;;;;;;;14.59;100.00;101377.06;4994883;28;20088;-89
2023/09/14 08:57:45;;;;;;;8.32;1.60;;;;;;;14.65;100.00;101382.56;4979209;28;20377;-89
2023/09/14 09:00:17;;;;;;;6.57;1.52;;;;;;;14.68;100.00;101392.19;5010477;28;20054;-89
2023/09/14 09:02:44;;;;;;;5.57;1.42;;;;;;;14.71;100.00;101384.53;4974309;28;20046;-88
2023/09/14 09:05:15;;;;;;;4.38;1.55;;;;;;;14.72;100.00;101396.19;4993311;28;20074;-89
2023/09/14 09:07:42;;;;;;;6.55;1.70;;;;;;;14.81;100.00;101383.41;5011718;28;20382;-89
2023/09/14 09:10:18;;;;;;;5.45;1.30;;;;;;;14.86;100.00;101381.78;4994669;28;20385;-90
2023/09/14 09:12:45;;;;;;;5.75;1.63;;;;;;;14.99;100.00;101383.00;4976621;28;20046;-88
2023/09/14 09:15:12;;;;;;;9.90;1.58;;;;;;;15.05;100.00;101380.34;4976642;28;20516;-91
2023/09/14 09:17:41;;;;;;;5.57;1.25;;;;;;;15.14;100.00;101384.66;4994931;28;20038;-89
2023/09/14 09:20:24;;;;;;;5.15;1.23;;;;;;;15.19;100.00;101375.97;5014291;28;20061;-89
2023/09/14 09:22:59;;;;;;;2.58;1.17;;;;;;;15.41;100.00;101382.22;4991724;28;20019;-87
2023/09/14 09:25:25;;;;;;;4.75;1.50;;;;;;;15.63;100.00;101388.50;5017896;28;20022;-88
2023/09/14 09:28:01;;;;;;;8.00;2.00;;;;;;;15.86;100.00;101385.63;5025599;28;20132;-89
2023/09/14 09:30:32;;;;;;;8.13;1.50;;;;;;;16.16;100.00;101388.97;4980041;28;20481;-90
2023/09/14 09:32:58;;;;;;;7.40;1.40;;;;;;;16.80;100.00;101396.06;4979865;28;20461;-91
2023/09/14 09:35:28;;;;;;;5.50;1.30;;;;;;;17.02;100.00;101388.69;4996314;28;20045;-91
2023/09/14 09:37:55;;;;;;;4.82;1.00;;;;;;;16.78;100.00;101391.91;5011280;28;20027;-90
2023/09/14 09:40:26;;;;;;;10.77;1.95;;;;;;;16.65;100.00;101384.50;5011580;28;20049;-91
2023/09/14 09:42:55;;;;;;;7.60;1.20;;;;;;;16.56;100.00;101386.53;4995192;28;20030;-91
2023/09/14 09:45:23;;;;;;;6.88;1.60;;;;;;;16.45;100.00;101396.06;4994369;28;20477;-90
2023/09/14 09:47:49;;;;;;;6.15;1.60;;;;;;;16.40;100.00;101403.13;4994338;28;20382;-91
2023/09/14 09:50:15;;;;;;;8.00;1.70;;;;;;;16.51;100.00;101401.75;4994650;28;20034;-93
2023/09/14 09:52:44;;;;;;;6.20;1.27;;;;;;;16.69;100.00;101397.47;4994726;28;20034;-93
2023/09/14 09:55:30;;;;;;;6.00;1.40;;;;;;;16.80;100.00;101401.50;4994500;28;20117;-91
2023/09/14 09:57:58;;;;;;;4.10;1.30;;;;;;;16.94;100.00;101396.16;4978615;28;20374;-93
2023/09/14 10:00:28;;;;;;;3.72;1.20;;;;;;;17.08;100.00;101397.88;4994822;28;20528;-92
2023/09/14 10:02:54;;;;;;;6.65;1.50;;;;;;;17.32;100.00;101397.34;4998595;28;20026;-91
2023/09/14 10:05:30;;;;;;;6.43;1.30;;;;;;;17.38;100.00;101384.81;4978641;28;20101;-92
2023/09/14 10:08:01;;;;;;;6.20;1.20;;;;;;;17.42;100.00;101391.50;4978767;28;20073;-92
2023/09/14 10:10:28;;;;;;;4.28;1.02;;;;;;;17.42;100.00;101387.97;4979101;28;20038;-91
2023/09/14 10:12:55;;;;;;;8.00;2.17;;;;;;;17.51;100.00;101398.41;5011420;28;20037;-93
2023/09/14 10:15:26;;;;;;;5.22;1.40;;;;;;;17.44;100.00;101394.00;4995241;28;20072;-93
2023/09/14 10:17:56;;;;;;;4.80;1.33;;;;;;;17.40;100.00;101390.03;5006553;28;20109;-90
2023/09/14 10:20:23;;;;;;;7.32;1.60;;;;;;;17.53;100.00;101400.94;5026166;28;20041;-93
2023/09/14 10:22:49;;;;;;;3.90;0.98;;;;;;;17.47;100.00;101385.47;4999214;28;20069;-93
2023/09/14 10:25:16;;;;;;;4.55;1.20;;;;;;;17.56;100.00;101395.94;5005884;28;20041;-95
2023/09/14 10:27:42;;;;;;;6.80;1.30;;;;;;;17.59;100.00;101391.94;4995070;28;20022;-94
2023/09/14 10:30:14;;;;;;;4.00;1.73;;;;;;;17.68;100.00;101387.19;4994612;28;20042;-94
2023/09/14 10:32:46;;;;;;;8.13;1.58;;;;;;;17.69;100.00;101388.84;5010639;28;20030;-94
2023/09/14 10:35:13;;;;;;;3.97;1.10;;;;;;;17.39;100.00;101391.09;4994567;28;20045;-94
2023/09/14 10:37:41;;;;;;;6.38;1.10;;;;;;;17.22;100.00;101390.63;4978689;28;20466;-89
2023/09/14 10:40:08;;;;;;;5.93;1.48;;;;;;;17.37;100.00;101388.56;4978572;28;20515;-91
2023/09/14 10:42:34;;;;;;;3.45;1.20;;;;;;;17.55;100.00;101383.38;4978496;28;20038;-92
2023/09/14 10:44:59;;;;;;;3.25;1.30;;;;;;;17.52;100.00;101382.97;4977888;28;20026;-93
2023/09/14 10:47:31;;;;;;;3.95;1.40;;;;;;;17.43;100.00;101371.44;5010536;28;20507;-93
2023/09/14 10:49:56;;;;;;;6.20;1.45;;;;;;;17.80;100.00;101375.47;4978242;28;20124;-94
2023/09/14 10:52:27;;;;;;;7.72;1.30;;;;;;;18.04;100.00;101375.06;5010425;28;20054;-92
2023/09/14 10:54:53;;;;;;;4.05;1.35;;;;;;;18.15;100.00;101358.97;4978964;28;20388;-90
2023/09/14 10:57:24;;;;;;;5.30;1.50;;;;;;;18.15;100.00;101361.69;4994622;28;20105;-93
2023/09/14 10:59:51;;;;;;;5.30;1.52;;;;;;;18.38;100.00;101355.75;5010736;28;20026;-92
2023/09/14 11:02:39;;;;;;;7.30;1.48;;;;;;;19.10;100.00;101358.44;4994481;28;20031;-90
2023/09/14 11:05:13;;;;;;;6.20;1.55;;;;;;;19.48;100.00;101354.88;4994305;28;20346;-91
2023/09/14 11:07:42;;;;;;;7.30;1.27;;;;;;;19.69;100.00;101343.63;4994291;28;20042;-92
2023/09/14 11:10:09;;;;;;;8.25;1.50;;;;;;;19.59;100.00;101351.44;5012205;28;20061;-94
2023/09/14 11:12:35;;;;;;;5.95;1.40;;;;;;;19.65;100.00;101350.53;4998374;28;20054;-93
2023/09/14 11:15:14;;;;;;;6.10;1.38;;;;;;;20.47;100.00;101352.34;4981699;28;20062;-94
2023/09/14 11:17:47;;;;;;;7.53;1.10;;;;;;;20.55;100.00;101355.63;4982251;28;20038;-94